Etusivu
METAR-TAF:

METAR-TAF

Lentoasemat :

Des Moines, Iowa, Yhdysvallat

Leveyspiiri: 41-32-16N, Pituuspiiri: 093-39-58W, korkeus merenpinnasta: 291 m

Tämänhetkinen sää

Tämä raportti tehtiin 10 minuuttia sitten, kello 09.54 UTC
Tuuli 6 kn etelästä/kaakosta
Lämpötila 2°C
Kosteus 93%
Ilmanpaine 1017 hPa
Näkyvyys: 16.1 km
selkeää

METAR: KDSM 170954Z 15006KT 10SM CLR 02/01 A3003 RMK AO2 SLP174 T00220006

Aika: 05:04 (10:04 UTC)

Sääennuste

Tämä raportti tehtiin 4 tuntia ja 44 minuuttia sitten, kello 05.20 UTC
Ennuste voimassa 17. päivästä klo 06 UTC - 18. päivään klo 06 UTC
Tuuli 3 kn eri suunnista
Näkyvyys: 10 km
Muutamia pilviä 25000 ft:n korkeudessa
From 17. päivästä klo 1300 UTC
Tuuli 5 kn etelästä/kaakosta
Näkyvyys: 10 km
Muutamia pilviä 25000 ft:n korkeudessa
From 17. päivästä klo 2000 UTC
Tuuli 10 kn kaakosta
Näkyvyys: 10 km
selkeää

TAF: KDSM 170520Z 1706/1806 VRB03KT P6SM FEW250 FM171300 16005KT P6SM FEW250 FM172000 14010KT P6SM SKC

Säähavainnot ja -ennusteet yli 4000 lentoasemalta (METAR- ja TAF-raportit).

Käytössä olevat sääasemat on merkitty karttaan keltaisilla ja punaisilla pisteillä.

Aseta hiiri pisteen päälle nähdäksesi sääaseman nimen.

Klikkaa sitten nähdäksesi säähavainnot ja -ennusteet.

Kartan vaihtaminen: klikkaa mustalla rastilla varustettuja vihreitä pisteitä, niin voit zoomata sisään; viivalla varustettua vihreää pistettä, niin voit zoomata ulos tai vihreitä nuolia, niin pääset viereisille kartoille.


METAR-TAF: